sensor_id;sensor_type;location;lat;lon;timestamp;pressure;altitude;pressure_sealevel;temperature;humidity
38225;BME280;24025;48.138;11.428;2023-03-03T00:00:25;95576.81;;;1.32;79.33
38225;BME280;24025;48.138;11.428;2023-03-03T00:03:04;95578.88;;;1.35;78.95
38225;BME280;24025;48.138;11.428;2023-03-03T00:05:35;95569.44;;;1.34;78.92
38225;BME280;24025;48.138;11.428;2023-03-03T00:08:07;95569.44;;;1.34;79.42
38225;BME280;24025;48.138;11.428;2023-03-03T00:10:38;95578.69;;;1.31;79.45
38225;BME280;24025;48.138;11.428;2023-03-03T00:13:15;95575.13;;;1.27;79.09
38225;BME280;24025;48.138;11.428;2023-03-03T00:15:46;95574.81;;;1.29;79.04
38225;BME280;24025;48.138;11.428;2023-03-03T00:18:47;95576.97;;;1.27;79.62
38225;BME280;24025;48.138;11.428;2023-03-03T00:24:02;95570.94;;;1.26;79.48
38225;BME280;24025;48.138;11.428;2023-03-03T00:26:45;95573.88;;;1.25;78.51
38225;BME280;24025;48.138;11.428;2023-03-03T00:29:29;95557.03;;;1.26;78.55
38225;BME280;24025;48.138;11.428;2023-03-03T00:34:40;95567.34;;;1.22;78.50
38225;BME280;24025;48.138;11.428;2023-03-03T00:39:58;95567.81;;;1.16;78.37
38225;BME280;24025;48.138;11.428;2023-03-03T00:42:33;95567.91;;;1.10;78.77
38225;BME280;24025;48.138;11.428;2023-03-03T00:47:57;95576.44;;;1.16;77.97
38225;BME280;24025;48.138;11.428;2023-03-03T00:50:33;95575.94;;;1.14;77.73
38225;BME280;24025;48.138;11.428;2023-03-03T00:53:10;95586.66;;;1.18;77.84
38225;BME280;24025;48.138;11.428;2023-03-03T00:55:43;95589.09;;;1.14;77.85
38225;BME280;24025;48.138;11.428;2023-03-03T00:58:16;95587.84;;;1.11;78.24
38225;BME280;24025;48.138;11.428;2023-03-03T01:00:50;95582.72;;;1.06;78.42
38225;BME280;24025;48.138;11.428;2023-03-03T01:03:24;95586.13;;;1.07;78.16
38225;BME280;24025;48.138;11.428;2023-03-03T01:05:56;95588.16;;;1.10;78.22
38225;BME280;24025;48.138;11.428;2023-03-03T01:08:27;95579.81;;;1.08;78.06
38225;BME280;24025;48.138;11.428;2023-03-03T01:11:06;95588.44;;;1.08;78.40
38225;BME280;24025;48.138;11.428;2023-03-03T01:13:42;95581.16;;;1.05;79.24
38225;BME280;24025;48.138;11.428;2023-03-03T01:16:15;95579.31;;;1.06;79.29
38225;BME280;24025;48.138;11.428;2023-03-03T01:18:49;95582.06;;;1.01;78.73
38225;BME280;24025;48.138;11.428;2023-03-03T01:21:21;95580.69;;;1.03;78.40
38225;BME280;24025;48.138;11.428;2023-03-03T01:23:53;95568.94;;;1.01;78.88
38225;BME280;24025;48.138;11.428;2023-03-03T01:26:25;95571.09;;;0.99;79.16
38225;BME280;24025;48.138;11.428;2023-03-03T01:28:57;95575.56;;;0.98;79.51
38225;BME280;24025;48.138;11.428;2023-03-03T01:31:28;95574.50;;;0.99;79.38
38225;BME280;24025;48.138;11.428;2023-03-03T01:34:00;95568.78;;;0.97;78.57
38225;BME280;24025;48.138;11.428;2023-03-03T01:36:33;95572.94;;;0.98;78.26
38225;BME280;24025;48.138;11.428;2023-03-03T01:39:04;95573.72;;;0.99;78.15
38225;BME280;24025;48.138;11.428;2023-03-03T01:41:36;95572.19;;;0.98;78.52
38225;BME280;24025;48.138;11.428;2023-03-03T01:44:14;95572.34;;;1.01;78.05
38225;BME280;24025;48.138;11.428;2023-03-03T01:47:21;95567.19;;;0.96;79.03
38225;BME280;24025;48.138;11.428;2023-03-03T01:50:09;95565.00;;;0.90;79.22
38225;BME280;24025;48.138;11.428;2023-03-03T01:52:44;95568.06;;;0.83;79.43
38225;BME280;24025;48.138;11.428;2023-03-03T01:55:24;95565.91;;;0.85;79.43
38225;BME280;24025;48.138;11.428;2023-03-03T01:58:03;95558.03;;;0.85;79.75
38225;BME280;24025;48.138;11.428;2023-03-03T02:00:39;95555.22;;;0.81;81.00
38225;BME280;24025;48.138;11.428;2023-03-03T02:03:11;95556.19;;;0.85;81.06
38225;BME280;24025;48.138;11.428;2023-03-03T02:05:43;95549.06;;;0.86;81.15
38225;BME280;24025;48.138;11.428;2023-03-03T02:08:15;95548.91;;;0.82;81.35
38225;BME280;24025;48.138;11.428;2023-03-03T02:10:50;95550.94;;;0.85;81.46
38225;BME280;24025;48.138;11.428;2023-03-03T02:13:22;95551.69;;;0.86;81.29
38225;BME280;24025;48.138;11.428;2023-03-03T02:15:54;95543.97;;;0.81;82.02
38225;BME280;24025;48.138;11.428;2023-03-03T02:18:28;95543.28;;;0.75;82.50
38225;BME280;24025;48.138;11.428;2023-03-03T02:21:04;95547.31;;;0.73;82.42
38225;BME280;24025;48.138;11.428;2023-03-03T02:24:12;95537.44;;;0.78;82.94
38225;BME280;24025;48.138;11.428;2023-03-03T02:26:46;95550.75;;;0.82;82.50
38225;BME280;24025;48.138;11.428;2023-03-03T02:29:18;95549.31;;;0.76;81.86
38225;BME280;24025;48.138;11.428;2023-03-03T02:31:50;95547.59;;;0.71;82.47
38225;BME280;24025;48.138;11.428;2023-03-03T02:34:23;95549.31;;;0.76;82.43
38225;BME280;24025;48.138;11.428;2023-03-03T02:36:54;95550.22;;;0.71;81.72
38225;BME280;24025;48.138;11.428;2023-03-03T02:39:26;95556.66;;;0.65;81.09
38225;BME280;24025;48.138;11.428;2023-03-03T02:42:19;95558.88;;;0.72;80.57
38225;BME280;24025;48.138;11.428;2023-03-03T02:44:51;95559.81;;;0.76;80.42
38225;BME280;24025;48.138;11.428;2023-03-03T02:47:24;95549.78;;;0.78;80.24
38225;BME280;24025;48.138;11.428;2023-03-03T02:49:55;95553.69;;;0.80;80.16
38225;BME280;24025;48.138;11.428;2023-03-03T02:52:27;95557.56;;;0.83;79.54
38225;BME280;24025;48.138;11.428;2023-03-03T02:54:58;95548.59;;;0.84;79.27
38225;BME280;24025;48.138;11.428;2023-03-03T02:57:30;95554.31;;;0.86;79.17
38225;BME280;24025;48.138;11.428;2023-03-03T03:00:01;95557.13;;;0.90;79.36
38225;BME280;24025;48.138;11.428;2023-03-03T03:02:33;95554.06;;;0.96;79.30
38225;BME280;24025;48.138;11.428;2023-03-03T03:05:05;95548.25;;;0.99;79.15
38225;BME280;24025;48.138;11.428;2023-03-03T03:07:36;95544.69;;;1.04;78.96
38225;BME280;24025;48.138;11.428;2023-03-03T03:10:08;95544.69;;;1.04;80.00
38225;BME280;24025;48.138;11.428;2023-03-03T03:12:40;95541.50;;;1.07;79.59
38225;BME280;24025;48.138;11.428;2023-03-03T03:15:12;95540.56;;;1.11;79.81
38225;BME280;24025;48.138;11.428;2023-03-03T03:17:43;95546.78;;;1.16;79.53
38225;BME280;24025;48.138;11.428;2023-03-03T03:20:15;95548.81;;;1.19;80.19
38225;BME280;24025;48.138;11.428;2023-03-03T03:22:47;95556.22;;;1.17;80.96
38225;BME280;24025;48.138;11.428;2023-03-03T03:25:19;95554.66;;;1.16;80.48
38225;BME280;24025;48.138;11.428;2023-03-03T03:27:50;95544.63;;;1.18;80.94
38225;BME280;24025;48.138;11.428;2023-03-03T03:30:22;95553.03;;;1.28;80.26
38225;BME280;24025;48.138;11.428;2023-03-03T03:32:54;95561.38;;;1.30;80.44
38225;BME280;24025;48.138;11.428;2023-03-03T03:35:27;95569.72;;;1.32;81.00
38225;BME280;24025;48.138;11.428;2023-03-03T03:38:01;95563.56;;;1.37;80.71
38225;BME280;24025;48.138;11.428;2023-03-03T03:40:33;95566.25;;;1.46;80.73
38225;BME280;24025;48.138;11.428;2023-03-03T03:43:07;95555.59;;;1.51;80.51
38225;BME280;24025;48.138;11.428;2023-03-03T03:45:42;95553.75;;;1.51;79.93
38225;BME280;24025;48.138;11.428;2023-03-03T03:48:14;95550.50;;;1.54;80.32
38225;BME280;24025;48.138;11.428;2023-03-03T03:50:47;95554.56;;;1.60;79.78
38225;BME280;24025;48.138;11.428;2023-03-03T03:53:19;95555.03;;;1.62;79.94
38225;BME280;24025;48.138;11.428;2023-03-03T03:55:52;95552.88;;;1.64;80.27
38225;BME280;24025;48.138;11.428;2023-03-03T03:58:24;95558.75;;;1.61;80.97
38225;BME280;24025;48.138;11.428;2023-03-03T04:01:01;95552.09;;;1.64;80.76
38225;BME280;24025;48.138;11.428;2023-03-03T04:03:33;95554.09;;;1.67;80.64
38225;BME280;24025;48.138;11.428;2023-03-03T04:06:05;95557.69;;;1.71;80.61
38225;BME280;24025;48.138;11.428;2023-03-03T04:08:36;95557.84;;;1.75;80.74
38225;BME280;24025;48.138;11.428;2023-03-03T04:11:08;95555.53;;;1.73;81.00
38225;BME280;24025;48.138;11.428;2023-03-03T04:13:40;95556.28;;;1.74;81.27
38225;BME280;24025;48.138;11.428;2023-03-03T04:16:11;95563.28;;;1.78;81.11
38225;BME280;24025;48.138;11.428;2023-03-03T04:18:43;95555.56;;;1.82;81.03
38225;BME280;24025;48.138;11.428;2023-03-03T04:21:17;95556.78;;;1.84;81.11
38225;BME280;24025;48.138;11.428;2023-03-03T04:23:48;95563.91;;;1.84;81.07
38225;BME280;24025;48.138;11.428;2023-03-03T04:26:20;95570.69;;;1.85;80.45
38225;BME280;24025;48.138;11.428;2023-03-03T04:28:52;95563.31;;;1.87;81.05
38225;BME280;24025;48.138;11.428;2023-03-03T04:31:24;95563.47;;;1.90;81.16
38225;BME280;24025;48.138;11.428;2023-03-03T04:33:56;95570.44;;;1.95;80.82
38225;BME280;24025;48.138;11.428;2023-03-03T04:36:27;95563.47;;;1.99;81.10
38225;BME280;24025;48.138;11.428;2023-03-03T04:38:59;95565.66;;;1.97;81.18
38225;BME280;24025;48.138;11.428;2023-03-03T04:41:30;95567.81;;;1.95;81.37
38225;BME280;24025;48.138;11.428;2023-03-03T04:44:02;95565.81;;;2.01;80.89
38225;BME280;24025;48.138;11.428;2023-03-03T04:46:33;95559.00;;;1.99;81.21
38225;BME280;24025;48.138;11.428;2023-03-03T04:49:05;95556.81;;;2.02;81.42
38225;BME280;24025;48.138;11.428;2023-03-03T04:51:41;95559.31;;;2.07;80.64
38225;BME280;24025;48.138;11.428;2023-03-03T04:54:13;95560.09;;;2.07;80.61
38225;BME280;24025;48.138;11.428;2023-03-03T04:56:44;95557.78;;;2.06;80.96
38225;BME280;24025;48.138;11.428;2023-03-03T04:59:17;95556.06;;;2.10;80.90
38225;BME280;24025;48.138;11.428;2023-03-03T05:01:49;95554.06;;;2.07;81.27
38225;BME280;24025;48.138;11.428;2023-03-03T05:04:21;95564.28;;;2.08;81.07
38225;BME280;24025;48.138;11.428;2023-03-03T05:06:53;95562.72;;;2.07;81.31
38225;BME280;24025;48.138;11.428;2023-03-03T05:09:25;95555.31;;;2.09;81.11
38225;BME280;24025;48.138;11.428;2023-03-03T05:11:57;95557.16;;;2.09;81.01
38225;BME280;24025;48.138;11.428;2023-03-03T05:14:28;95554.22;;;2.10;81.29
38225;BME280;24025;48.138;11.428;2023-03-03T05:17:02;95559.00;;;2.08;81.41
38225;BME280;24025;48.138;11.428;2023-03-03T05:19:34;95554.72;;;2.12;81.72
38225;BME280;24025;48.138;11.428;2023-03-03T05:22:06;95556.25;;;2.13;81.35
38225;BME280;24025;48.138;11.428;2023-03-03T05:24:37;95554.09;;;2.15;81.85
38225;BME280;24025;48.138;11.428;2023-03-03T05:27:09;95562.63;;;2.21;81.27
38225;BME280;24025;48.138;11.428;2023-03-03T05:29:42;95562.91;;;2.19;81.10
38225;BME280;24025;48.138;11.428;2023-03-03T05:32:13;95559.19;;;2.20;81.05
38225;BME280;24025;48.138;11.428;2023-03-03T05:34:45;95563.22;;;2.26;81.31
38225;BME280;24025;48.138;11.428;2023-03-03T05:37:17;95565.84;;;2.26;81.20
38225;BME280;24025;48.138;11.428;2023-03-03T05:39:48;95581.94;;;2.25;81.41
38225;BME280;24025;48.138;11.428;2023-03-03T05:42:21;95583.19;;;2.27;81.38
38225;BME280;24025;48.138;11.428;2023-03-03T05:44:53;95575.75;;;2.30;80.80
38225;BME280;24025;48.138;11.428;2023-03-03T05:47:24;95582.28;;;2.32;81.53
38225;BME280;24025;48.138;11.428;2023-03-03T05:49:56;95581.97;;;2.34;81.09
38225;BME280;24025;48.138;11.428;2023-03-03T05:52:28;95580.88;;;2.35;81.05
38225;BME280;24025;48.138;11.428;2023-03-03T05:54:59;95589.22;;;2.37;81.20
38225;BME280;24025;48.138;11.428;2023-03-03T05:57:31;95590.19;;;2.41;81.25
38225;BME280;24025;48.138;11.428;2023-03-03T06:00:04;95586.78;;;2.40;80.77
38225;BME280;24025;48.138;11.428;2023-03-03T06:02:36;95594.81;;;2.35;80.75
38225;BME280;24025;48.138;11.428;2023-03-03T06:05:08;95594.16;;;2.30;81.71
38225;BME280;24025;48.138;11.428;2023-03-03T06:07:40;95601.78;;;2.31;81.39
38225;BME280;24025;48.138;11.428;2023-03-03T06:10:11;95601.59;;;2.27;81.79
38225;BME280;24025;48.138;11.428;2023-03-03T06:12:43;95597.44;;;2.35;81.28
38225;BME280;24025;48.138;11.428;2023-03-03T06:15:15;95603.78;;;2.34;82.00
38225;BME280;24025;48.138;11.428;2023-03-03T06:17:46;95607.97;;;2.35;81.46
38225;BME280;24025;48.138;11.428;2023-03-03T06:20:18;95609.19;;;2.38;81.85
38225;BME280;24025;48.138;11.428;2023-03-03T06:22:49;95614.63;;;2.41;81.25
38225;BME280;24025;48.138;11.428;2023-03-03T06:25:21;95618.03;;;2.42;81.37
38225;BME280;24025;48.138;11.428;2023-03-03T06:27:52;95626.03;;;2.28;81.66
38225;BME280;24025;48.138;11.428;2023-03-03T06:30:24;95628.38;;;2.30;81.89
38225;BME280;24025;48.138;11.428;2023-03-03T06:32:57;95627.78;;;2.33;81.64
38225;BME280;24025;48.138;11.428;2023-03-03T06:35:29;95623.88;;;2.21;81.45
38225;BME280;24025;48.138;11.428;2023-03-03T06:38:01;95628.38;;;2.21;81.57
38225;BME280;24025;48.138;11.428;2023-03-03T06:40:33;95627.75;;;2.24;81.87
38225;BME280;24025;48.138;11.428;2023-03-03T06:43:07;95624.19;;;2.28;81.80
38225;BME280;24025;48.138;11.428;2023-03-03T06:45:39;95625.53;;;2.09;82.16
38225;BME280;24025;48.138;11.428;2023-03-03T06:48:11;95623.69;;;2.18;81.86
38225;BME280;24025;48.138;11.428;2023-03-03T06:50:43;95627.28;;;2.22;82.25
38225;BME280;24025;48.138;11.428;2023-03-03T06:53:16;95625.88;;;2.16;81.74
38225;BME280;24025;48.138;11.428;2023-03-03T06:55:48;95630.81;;;2.17;81.96
38225;BME280;24025;48.138;11.428;2023-03-03T06:58:21;95622.63;;;2.19;82.11
38225;BME280;24025;48.138;11.428;2023-03-03T07:00:58;95629.91;;;2.22;81.66
38225;BME280;24025;48.138;11.428;2023-03-03T07:03:34;95630.53;;;2.27;81.60
38225;BME280;24025;48.138;11.428;2023-03-03T07:06:15;95629.59;;;2.23;81.39
38225;BME280;24025;48.138;11.428;2023-03-03T07:08:48;95637.66;;;2.27;81.95
38225;BME280;24025;48.138;11.428;2023-03-03T07:11:22;95640.75;;;2.29;81.31
38225;BME280;24025;48.138;11.428;2023-03-03T07:13:54;95642.59;;;2.28;81.30
38225;BME280;24025;48.138;11.428;2023-03-03T07:16:26;95653.13;;;2.28;81.20
38225;BME280;24025;48.138;11.428;2023-03-03T07:18:59;95649.13;;;2.31;81.15
38225;BME280;24025;48.138;11.428;2023-03-03T07:21:35;95647.84;;;2.20;81.67
38225;BME280;24025;48.138;11.428;2023-03-03T07:24:24;95657.47;;;2.24;82.11
38225;BME280;24025;48.138;11.428;2023-03-03T07:27:10;95661.94;;;2.24;81.44
38225;BME280;24025;48.138;11.428;2023-03-03T07:29:47;95656.06;;;2.27;81.34
38225;BME280;24025;48.138;11.428;2023-03-03T07:32:38;95659.38;;;2.41;81.13
38225;BME280;24025;48.138;11.428;2023-03-03T07:35:39;95658.91;;;2.48;80.29
38225;BME280;24025;48.138;11.428;2023-03-03T07:38:16;95660.00;;;2.55;80.46
38225;BME280;24025;48.138;11.428;2023-03-03T07:41:16;95665.59;;;2.63;79.49
38225;BME280;24025;48.138;11.428;2023-03-03T07:51:54;95680.16;;;2.60;79.27
38225;BME280;24025;48.138;11.428;2023-03-03T07:57:23;95683.25;;;2.71;78.90
38225;BME280;24025;48.138;11.428;2023-03-03T08:02:40;95678.16;;;2.74;78.42
38225;BME280;24025;48.138;11.428;2023-03-03T08:05:37;95680.00;;;2.82;79.20
38225;BME280;24025;48.138;11.428;2023-03-03T08:08:29;95678.97;;;2.92;78.25
38225;BME280;24025;48.138;11.428;2023-03-03T08:11:02;95684.66;;;2.77;78.65
38225;BME280;24025;48.138;11.428;2023-03-03T08:13:36;95691.94;;;2.71;78.61
38225;BME280;24025;48.138;11.428;2023-03-03T08:18:48;95688.53;;;2.88;78.06
38225;BME280;24025;48.138;11.428;2023-03-03T08:21:22;95689.75;;;2.73;78.49
38225;BME280;24025;48.138;11.428;2023-03-03T08:23:54;95683.28;;;2.88;78.17
38225;BME280;24025;48.138;11.428;2023-03-03T08:26:26;95675.38;;;2.88;78.63
38225;BME280;24025;48.138;11.428;2023-03-03T08:28:58;95680.97;;;3.04;78.05
38225;BME280;24025;48.138;11.428;2023-03-03T08:31:29;95682.38;;;3.19;77.99
38225;BME280;24025;48.138;11.428;2023-03-03T08:34:12;95679.56;;;3.24;77.37
38225;BME280;24025;48.138;11.428;2023-03-03T08:36:43;95669.81;;;3.16;78.02
38225;BME280;24025;48.138;11.428;2023-03-03T08:39:15;95679.25;;;3.34;77.63
38225;BME280;24025;48.138;11.428;2023-03-03T08:41:46;95678.91;;;3.44;77.02
38225;BME280;24025;48.138;11.428;2023-03-03T08:44:18;95677.53;;;3.47;75.96
38225;BME280;24025;48.138;11.428;2023-03-03T08:46:51;95691.63;;;3.59;75.74
38225;BME280;24025;48.138;11.428;2023-03-03T08:49:23;95687.13;;;3.60;75.69
38225;BME280;24025;48.138;11.428;2023-03-03T08:51:55;95697.69;;;3.51;75.84
38225;BME280;24025;48.138;11.428;2023-03-03T08:54:27;95696.31;;;3.36;75.97
38225;BME280;24025;48.138;11.428;2023-03-03T08:56:58;95693.81;;;3.57;76.49
38225;BME280;24025;48.138;11.428;2023-03-03T08:59:30;95698.75;;;3.67;76.00
38225;BME280;24025;48.138;11.428;2023-03-03T09:02:02;95701.06;;;3.69;74.09
38225;BME280;24025;48.138;11.428;2023-03-03T09:04:33;95706.31;;;3.78;74.25
38225;BME280;24025;48.138;11.428;2023-03-03T09:07:05;95704.00;;;3.76;74.95
38225;BME280;24025;48.138;11.428;2023-03-03T09:09:38;95704.13;;;3.88;73.85
38225;BME280;24025;48.138;11.428;2023-03-03T09:12:18;95702.38;;;4.01;73.22
38225;BME280;24025;48.138;11.428;2023-03-03T09:14:55;95707.03;;;4.04;72.93
38225;BME280;24025;48.138;11.428;2023-03-03T09:17:31;95711.09;;;3.93;73.57
38225;BME280;24025;48.138;11.428;2023-03-03T09:20:21;95702.16;;;3.68;74.33
38225;BME280;24025;48.138;11.428;2023-03-03T09:22:54;95711.75;;;3.81;74.47
38225;BME280;24025;48.138;11.428;2023-03-03T09:25:36;95708.78;;;3.91;73.73
38225;BME280;24025;48.138;11.428;2023-03-03T09:30:50;95710.91;;;4.07;73.84
38225;BME280;24025;48.138;11.428;2023-03-03T09:36:11;95724.63;;;4.30;72.56
38225;BME280;24025;48.138;11.428;2023-03-03T09:38:49;95722.59;;;4.35;72.46
38225;BME280;24025;48.138;11.428;2023-03-03T09:47:34;95723.50;;;4.39;72.45
38225;BME280;24025;48.138;11.428;2023-03-03T09:58:48;95742.13;;;4.81;70.81
38225;BME280;24025;48.138;11.428;2023-03-03T10:10:20;95747.38;;;4.51;72.04
38225;BME280;24025;48.138;11.428;2023-03-03T10:24:24;95749.94;;;4.98;69.98
38225;BME280;24025;48.138;11.428;2023-03-03T10:27:04;95750.81;;;4.81;70.46
38225;BME280;24025;48.138;11.428;2023-03-03T10:30:02;95745.84;;;4.80;70.95
38225;BME280;24025;48.138;11.428;2023-03-03T10:32:57;95750.03;;;4.81;70.66
38225;BME280;24025;48.138;11.428;2023-03-03T10:35:55;95752.31;;;4.91;70.42
38225;BME280;24025;48.138;11.428;2023-03-03T10:38:45;95747.28;;;4.98;70.78
38225;BME280;24025;48.138;11.428;2023-03-03T10:44:23;95749.81;;;4.95;70.17
38225;BME280;24025;48.138;11.428;2023-03-03T10:59:00;95733.72;;;5.50;68.31
38225;BME280;24025;48.138;11.428;2023-03-03T11:02:01;95746.28;;;5.53;67.62
38225;BME280;24025;48.138;11.428;2023-03-03T11:04:54;95748.03;;;5.49;67.64
38225;BME280;24025;48.138;11.428;2023-03-03T11:07:42;95747.06;;;5.54;67.88
38225;BME280;24025;48.138;11.428;2023-03-03T11:16:53;95757.75;;;4.95;69.45
38225;BME280;24025;48.138;11.428;2023-03-03T11:22:48;95759.84;;;5.01;68.93
38225;BME280;24025;48.138;11.428;2023-03-03T11:25:26;95762.19;;;5.03;68.73
38225;BME280;24025;48.138;11.428;2023-03-03T11:34:12;95761.16;;;4.95;69.37
38225;BME280;24025;48.138;11.428;2023-03-03T11:36:57;95764.88;;;4.94;69.58
38225;BME280;24025;48.138;11.428;2023-03-03T11:39:42;95758.47;;;5.04;69.88
38225;BME280;24025;48.138;11.428;2023-03-03T11:45:02;95751.91;;;5.31;68.93
38225;BME280;24025;48.138;11.428;2023-03-03T11:48:05;95737.63;;;5.44;67.92
38225;BME280;24025;48.138;11.428;2023-03-03T11:50:57;95731.88;;;5.63;68.10
38225;BME280;24025;48.138;11.428;2023-03-03T11:56:26;95728.81;;;5.73;66.98
38225;BME280;24025;48.138;11.428;2023-03-03T12:05:07;95723.47;;;6.27;65.42
38225;BME280;24025;48.138;11.428;2023-03-03T12:07:48;95728.91;;;6.31;64.83
38225;BME280;24025;48.138;11.428;2023-03-03T12:10:47;95723.28;;;6.57;64.11
38225;BME280;24025;48.138;11.428;2023-03-03T12:27:16;95710.56;;;6.87;63.03
38225;BME280;24025;48.138;11.428;2023-03-03T12:45:36;95715.41;;;6.97;62.72
38225;BME280;24025;48.138;11.428;2023-03-03T12:48:20;95711.41;;;7.15;62.55
38225;BME280;24025;48.138;11.428;2023-03-03T12:51:25;95711.34;;;6.87;62.81
38225;BME280;24025;48.138;11.428;2023-03-03T13:05:26;95702.38;;;7.16;62.33
38225;BME280;24025;48.138;11.428;2023-03-03T13:19:31;95708.00;;;7.02;62.11
38225;BME280;24025;48.138;11.428;2023-03-03T13:28:12;95707.34;;;7.18;61.86
38225;BME280;24025;48.138;11.428;2023-03-03T13:30:54;95705.00;;;7.16;62.06
38225;BME280;24025;48.138;11.428;2023-03-03T13:33:34;95692.66;;;7.08;62.47
38225;BME280;24025;48.138;11.428;2023-03-03T13:36:08;95692.53;;;7.04;62.47
38225;BME280;24025;48.138;11.428;2023-03-03T13:38:46;95694.41;;;7.16;62.37
38225;BME280;24025;48.138;11.428;2023-03-03T13:44:19;95694.19;;;7.09;62.40
38225;BME280;24025;48.138;11.428;2023-03-03T13:52:26;95683.94;;;7.07;62.68
38225;BME280;24025;48.138;11.428;2023-03-03T14:06:34;95669.38;;;9.19;55.82
38225;BME280;24025;48.138;11.428;2023-03-03T14:12:59;95660.28;;;11.26;50.40
38225;BME280;24025;48.138;11.428;2023-03-03T14:15:26;95654.09;;;11.22;49.52
38225;BME280;24025;48.138;11.428;2023-03-03T14:21:18;95649.44;;;10.59;50.81
38225;BME280;24025;48.138;11.428;2023-03-03T14:24:06;95649.16;;;10.41;51.58
38225;BME280;24025;48.138;11.428;2023-03-03T14:26:52;95651.59;;;10.49;51.45
38225;BME280;24025;48.138;11.428;2023-03-03T14:32:00;95649.66;;;10.01;52.54
38225;BME280;24025;48.138;11.428;2023-03-03T14:34:56;95647.63;;;9.94;53.41
38225;BME280;24025;48.138;11.428;2023-03-03T14:37:49;95648.34;;;9.91;53.73
38225;BME280;24025;48.138;11.428;2023-03-03T14:40:21;95648.94;;;10.04;52.79
38225;BME280;24025;48.138;11.428;2023-03-03T14:43:19;95648.47;;;9.56;53.82
38225;BME280;24025;48.138;11.428;2023-03-03T14:45:55;95649.47;;;9.90;54.13
38225;BME280;24025;48.138;11.428;2023-03-03T14:48:34;95651.22;;;9.82;53.82
38225;BME280;24025;48.138;11.428;2023-03-03T14:51:45;95651.81;;;9.95;52.95
38225;BME280;24025;48.138;11.428;2023-03-03T14:54:26;95649.22;;;10.21;52.59
38225;BME280;24025;48.138;11.428;2023-03-03T14:57:36;95649.94;;;10.41;52.09
38225;BME280;24025;48.138;11.428;2023-03-03T15:05:30;95653.91;;;10.77;50.13
38225;BME280;24025;48.138;11.428;2023-03-03T15:10:41;95652.06;;;9.86;52.27
38225;BME280;24025;48.138;11.428;2023-03-03T15:25:52;95648.44;;;9.75;52.11
38225;BME280;24025;48.138;11.428;2023-03-03T15:28:51;95658.72;;;10.68;50.17
38225;BME280;24025;48.138;11.428;2023-03-03T15:34:50;95659.44;;;11.52;48.18
38225;BME280;24025;48.138;11.428;2023-03-03T15:38:13;95664.69;;;11.78;47.48
38225;BME280;24025;48.138;11.428;2023-03-03T15:40:57;95663.97;;;11.81;46.96
38225;BME280;24025;48.138;11.428;2023-03-03T15:43:55;95661.38;;;11.88;45.93
38225;BME280;24025;48.138;11.428;2023-03-03T15:55:13;95656.34;;;10.37;50.93
38225;BME280;24025;48.138;11.428;2023-03-03T16:03:55;95661.34;;;9.15;54.09
38225;BME280;24025;48.138;11.428;2023-03-03T16:06:48;95663.94;;;8.92;54.37
38225;BME280;24025;48.138;11.428;2023-03-03T16:18:09;95668.38;;;8.37;56.66
38225;BME280;24025;48.138;11.428;2023-03-03T16:24:44;95671.69;;;8.18;57.93
38225;BME280;24025;48.138;11.428;2023-03-03T16:32:50;95670.13;;;7.86;58.76
38225;BME280;24025;48.138;11.428;2023-03-03T16:35:28;95682.59;;;7.70;59.78
38225;BME280;24025;48.138;11.428;2023-03-03T16:38:12;95680.28;;;7.68;59.87
38225;BME280;24025;48.138;11.428;2023-03-03T16:40:59;95678.22;;;7.61;60.12
38225;BME280;24025;48.138;11.428;2023-03-03T16:46:30;95682.94;;;7.40;60.80
38225;BME280;24025;48.138;11.428;2023-03-03T16:52:14;95695.94;;;7.17;61.99
38225;BME280;24025;48.138;11.428;2023-03-03T16:58:44;95701.06;;;6.98;62.86
38225;BME280;24025;48.138;11.428;2023-03-03T17:01:24;95704.28;;;6.91;63.79
38225;BME280;24025;48.138;11.428;2023-03-03T17:04:00;95708.59;;;6.84;64.36
38225;BME280;24025;48.138;11.428;2023-03-03T17:06:48;95702.41;;;6.67;65.50
38225;BME280;24025;48.138;11.428;2023-03-03T17:09:40;95709.72;;;6.58;65.47
38225;BME280;24025;48.138;11.428;2023-03-03T17:12:37;95706.59;;;6.44;65.94
38225;BME280;24025;48.138;11.428;2023-03-03T17:27:02;95717.25;;;5.99;67.37
38225;BME280;24025;48.138;11.428;2023-03-03T17:35:59;95732.66;;;5.63;68.35
38225;BME280;24025;48.138;11.428;2023-03-03T17:39:57;95737.25;;;5.54;68.91
38225;BME280;24025;48.138;11.428;2023-03-03T17:45:22;95740.16;;;5.40;69.30
38225;BME280;24025;48.138;11.428;2023-03-03T17:51:27;95755.63;;;5.30;69.91
38225;BME280;24025;48.138;11.428;2023-03-03T17:54:27;95751.50;;;5.20;70.08
38225;BME280;24025;48.138;11.428;2023-03-03T18:14:50;95768.69;;;4.76;71.64
38225;BME280;24025;48.138;11.428;2023-03-03T18:22:50;95775.88;;;4.67;71.99
38225;BME280;24025;48.138;11.428;2023-03-03T18:25:24;95770.59;;;4.67;72.25
38225;BME280;24025;48.138;11.428;2023-03-03T18:30:59;95777.94;;;4.61;72.25
38225;BME280;24025;48.138;11.428;2023-03-03T18:33:58;95778.09;;;4.56;72.07
38225;BME280;24025;48.138;11.428;2023-03-03T18:39:04;95783.63;;;4.42;72.74
38225;BME280;24025;48.138;11.428;2023-03-03T18:42:04;95777.41;;;4.38;72.09
38225;BME280;24025;48.138;11.428;2023-03-03T18:44:38;95778.34;;;4.34;72.79
38225;BME280;24025;48.138;11.428;2023-03-03T18:47:11;95785.34;;;4.30;73.20
38225;BME280;24025;48.138;11.428;2023-03-03T18:53:46;95781.66;;;4.13;73.67
38225;BME280;24025;48.138;11.428;2023-03-03T18:55:58;95786.94;;;4.05;74.12
38225;BME280;24025;48.138;11.428;2023-03-03T18:58:33;95786.81;;;4.01;73.84
38225;BME280;24025;48.138;11.428;2023-03-03T19:04:22;95779.03;;;3.96;73.66
38225;BME280;24025;48.138;11.428;2023-03-03T19:07:08;95782.16;;;3.98;73.72
38225;BME280;24025;48.138;11.428;2023-03-03T19:09:44;95791.47;;;3.87;73.65
38225;BME280;24025;48.138;11.428;2023-03-03T19:12:17;95793.50;;;3.81;74.89
38225;BME280;24025;48.138;11.428;2023-03-03T19:14:49;95798.94;;;3.76;75.03
38225;BME280;24025;48.138;11.428;2023-03-03T19:20:08;95804.66;;;3.69;74.30